Time;durP1;ratioP1;P1;durP2;ratioP2;P2;SDS_P1;SDS_P2;PMS_P1;PMS_P2;Temp;Humidity;BMP_temperature;BMP_pressure;BME280_temperature;BME280_humidity;BME280_pressure;Samples;Min_cycle;Max_cycle;Signal;HPM_P1;HPM_P2
2023/01/22 01:08:27;;;;;;;44.40;22.00;;;;;;;10.96;96.96;101462.46;107682;1293;21993;-60
2023/01/22 01:10:54;;;;;;;41.10;22.20;;;;;;;11.39;92.49;101462.95;107492;1282;22031;-70
2023/01/22 01:13:20;;;;;;;35.10;18.90;;;;;;;11.58;89.78;101465.27;107482;1294;21998;-60
2023/01/22 01:15:47;;;;;;;41.20;18.80;;;;;;;11.75;87.76;101467.04;107519;1294;21994;-62
2023/01/22 01:18:13;;;;;;;34.20;16.80;;;;;;;11.87;86.40;101462.11;107268;1292;361636;-71
2023/01/22 01:20:40;;;;;;;33.90;15.40;;;;;;;11.97;85.63;101458.08;107795;1292;21995;-71
2023/01/22 01:23:06;;;;;;;32.80;15.20;;;;;;;12.07;84.88;101459.48;107763;1292;22020;-60
2023/01/22 01:25:32;;;;;;;31.40;15.60;;;;;;;12.15;84.00;101461.77;107688;1292;22005;-70
2023/01/22 01:27:58;;;;;;;33.20;14.90;;;;;;;12.19;82.99;101461.40;107895;1292;22007;-70
2023/01/22 01:30:24;;;;;;;27.10;15.20;;;;;;;12.21;82.66;101465.79;107896;1292;22000;-70
2023/01/22 01:32:50;;;;;;;28.10;14.30;;;;;;;12.23;81.84;101465.80;107889;1286;21999;-61
2023/01/22 01:35:15;;;;;;;28.40;14.90;;;;;;;12.19;81.04;101468.78;107782;1286;22003;-70
2023/01/22 01:37:41;;;;;;;28.80;16.20;;;;;;;12.19;80.60;101468.27;107761;1292;22016;-71
2023/01/22 01:40:08;;;;;;;29.70;16.10;;;;;;;12.19;79.99;101463.85;107900;1286;21996;-71
2023/01/22 01:42:34;;;;;;;26.40;14.80;;;;;;;12.14;79.55;101463.34;107877;1286;22003;-60
2023/01/22 01:45:23;;;;;;;32.10;15.30;;;;;;;12.14;78.82;101466.34;107923;1292;21993;-61
2023/01/22 01:48:13;;;;;;;25.20;14.00;;;;;;;12.11;78.42;101471.09;107920;1292;22030;-61
2023/01/22 01:50:39;;;;;;;30.70;15.50;;;;;;;12.09;77.90;101471.98;107631;1292;21998;-61
2023/01/22 01:53:05;;;;;;;26.20;14.90;;;;;;;12.09;77.44;101474.09;107790;1292;22059;-71
2023/01/22 01:55:30;;;;;;;26.20;15.00;;;;;;;12.06;77.19;101475.15;107766;1289;21995;-71
2023/01/22 01:57:59;;;;;;;29.40;15.60;;;;;;;11.94;77.37;101469.67;107835;1291;21995;-71
2023/01/22 02:00:26;;;;;;;24.60;14.70;;;;;;;11.87;77.46;101471.26;107786;1291;22083;-70
2023/01/22 02:02:51;;;;;;;27.50;14.40;;;;;;;11.81;77.59;101472.14;107775;1291;21994;-61
2023/01/22 02:05:19;;;;;;;27.40;14.90;;;;;;;11.83;77.10;101473.89;107769;1291;22456;-70
2023/01/22 02:07:46;;;;;;;28.40;15.10;;;;;;;11.85;76.75;101474.42;107074;1291;1003064;-62
2023/01/22 02:10:11;;;;;;;27.80;14.20;;;;;;;11.87;76.76;101473.19;107859;1291;21997;-61
2023/01/22 02:12:37;;;;;;;31.60;14.90;;;;;;;11.87;76.73;101473.36;107804;1291;21994;-71
2023/01/22 02:15:05;;;;;;;29.80;15.00;;;;;;;11.88;76.86;101471.96;107763;1279;22006;-61
2023/01/22 02:17:30;;;;;;;28.10;13.90;;;;;;;11.92;76.97;101477.77;107864;1291;22007;-71
2023/01/22 02:19:57;;;;;;;27.00;14.00;;;;;;;11.94;76.31;101479.69;107991;1289;21995;-71
2023/01/22 02:22:30;;;;;;;26.30;14.20;;;;;;;11.89;75.83;101478.98;107853;1289;22002;-61
2023/01/22 02:24:55;;;;;;;27.10;14.00;;;;;;;11.79;75.70;101480.22;107919;1291;22001;-71
2023/01/22 02:27:21;;;;;;;26.10;14.10;;;;;;;11.75;75.89;101484.44;107137;1291;1002822;-72
2023/01/22 02:29:51;;;;;;;25.50;14.30;;;;;;;11.72;76.13;101483.73;107827;1291;21988;-71
2023/01/22 02:32:16;;;;;;;26.20;14.60;;;;;;;11.69;76.46;101479.69;107948;1291;21989;-72
2023/01/22 02:34:42;;;;;;;29.40;13.60;;;;;;;11.72;76.27;101484.08;107824;1291;22003;-61
2023/01/22 02:37:09;;;;;;;27.20;13.90;;;;;;;11.76;75.30;101487.95;108066;1287;22003;-71
2023/01/22 02:39:36;;;;;;;32.90;14.60;;;;;;;11.70;75.26;101480.92;108128;1288;21990;-72
2023/01/22 02:42:03;;;;;;;30.60;14.00;;;;;;;11.67;75.30;101483.38;108114;1288;21985;-72
2023/01/22 02:44:29;;;;;;;26.70;13.80;;;;;;;11.71;75.08;101483.20;108087;1288;21999;-60
2023/01/22 02:46:55;;;;;;;27.80;14.30;;;;;;;11.67;74.66;101492.70;108096;1276;22022;-61
2023/01/22 02:49:20;;;;;;;28.40;14.30;;;;;;;11.55;74.63;101499.36;108151;1288;21996;-71
2023/01/22 02:51:46;;;;;;;28.30;14.90;;;;;;;11.55;74.64;101498.48;108069;1282;21982;-60
2023/01/22 02:54:12;;;;;;;29.20;13.30;;;;;;;11.60;74.45;101499.73;108063;1288;21996;-61
2023/01/22 02:56:37;;;;;;;28.10;13.40;;;;;;;11.60;74.17;101500.25;108089;1288;22005;-62
2023/01/22 02:59:03;;;;;;;23.90;13.20;;;;;;;11.55;74.21;101496.02;108019;1288;21991;-72
2023/01/22 03:01:29;;;;;;;35.30;13.40;;;;;;;11.47;74.29;101496.36;108070;1288;21990;-60
2023/01/22 03:03:56;;;;;;;21.80;13.00;;;;;;;11.44;74.29;101499.00;108117;1288;21997;-62
2023/01/22 03:06:24;;;;;;;28.50;12.90;;;;;;;11.43;74.25;101502.52;108028;1288;21981;-61
2023/01/22 03:08:53;;;;;;;23.30;13.50;;;;;;;11.41;73.86;101505.15;108104;1288;22273;-71
2023/01/22 03:11:19;;;;;;;23.80;12.20;;;;;;;11.37;73.28;101503.55;108059;1288;22022;-61
2023/01/22 03:22:00;;;;;;;22.90;10.70;;;;;;;11.27;73.36;101518.45;108050;1288;21990;-60
2023/01/22 03:24:26;;;;;;;30.10;13.40;;;;;;;11.27;73.01;101518.45;107970;1288;21987;-59
2023/01/22 03:26:52;;;;;;;29.50;13.40;;;;;;;11.24;72.56;101518.27;108104;1288;21992;-69
2023/01/22 03:29:18;;;;;;;26.90;12.40;;;;;;;11.23;72.59;101524.25;108102;1288;21993;-59
2023/01/22 03:31:47;;;;;;;22.00;11.50;;;;;;;11.21;72.52;101522.83;108175;1288;21984;-59
2023/01/22 03:34:17;;;;;;;25.20;12.10;;;;;;;11.18;72.30;101524.75;108081;1288;22006;-59
2023/01/22 03:36:43;;;;;;;27.40;12.90;;;;;;;11.20;72.51;101525.29;108137;1288;21990;-59
2023/01/22 03:39:09;;;;;;;23.40;11.70;;;;;;;11.20;72.40;101528.45;108123;1288;21996;-70
2023/01/22 03:41:35;;;;;;;23.20;11.90;;;;;;;11.16;72.46;101530.19;108174;1288;21989;-60
2023/01/22 03:44:02;;;;;;;24.70;12.40;;;;;;;11.18;72.33;101534.05;107426;1286;1002871;-60
2023/01/22 03:46:28;;;;;;;25.60;12.70;;;;;;;11.17;72.11;101537.05;108096;1287;23683;-70
2023/01/22 03:48:54;;;;;;;25.20;12.70;;;;;;;11.16;71.96;101536.86;108097;1288;21998;-70
2023/01/22 03:51:20;;;;;;;29.60;12.00;;;;;;;11.18;72.00;101536.70;108124;1275;22452;-70
2023/01/22 03:53:46;;;;;;;23.30;11.70;;;;;;;11.19;72.04;101539.52;108155;1288;21995;-70
2023/01/22 03:56:17;;;;;;;29.80;12.50;;;;;;;11.18;71.70;101545.30;108079;1288;21989;-61
2023/01/22 03:58:42;;;;;;;27.90;11.80;;;;;;;11.13;71.36;101546.69;108109;1288;22044;-70
2023/01/22 04:01:10;;;;;;;19.70;10.70;;;;;;;11.09;71.34;101550.01;108067;1277;22023;-59
2023/01/22 04:03:36;;;;;;;23.90;11.20;;;;;;;11.10;71.61;101557.57;108140;1288;22065;-60
2023/01/22 04:06:03;;;;;;;20.90;12.30;;;;;;;11.09;71.50;101562.83;107990;1288;22027;-64
2023/01/22 04:08:30;;;;;;;24.40;12.60;;;;;;;11.11;71.27;101558.09;108089;1288;21992;-59
2023/01/22 04:10:56;;;;;;;20.60;11.70;;;;;;;11.11;71.21;101559.67;108102;1288;21986;-70
2023/01/22 04:13:22;;;;;;;27.30;11.90;;;;;;;11.12;71.45;101566.54;108123;1288;21988;-60
2023/01/22 04:15:48;;;;;;;22.90;11.20;;;;;;;11.15;71.77;101564.09;108084;1288;21989;-70
2023/01/22 04:18:15;;;;;;;23.30;11.80;;;;;;;11.17;71.33;101569.72;108008;1284;21980;-60
2023/01/22 04:20:41;;;;;;;26.00;11.50;;;;;;;11.13;70.78;101571.11;108020;1288;22451;-60
2023/01/22 04:23:07;;;;;;;28.20;12.10;;;;;;;11.12;70.90;101573.57;108046;1288;21987;-70
2023/01/22 04:25:33;;;;;;;24.90;12.40;;;;;;;11.17;71.49;101570.95;108016;1275;22010;-60
2023/01/22 04:28:00;;;;;;;27.40;11.00;;;;;;;11.28;71.45;101573.27;108137;1288;22454;-60
2023/01/22 04:30:25;;;;;;;24.90;11.80;;;;;;;11.33;71.24;101573.29;108028;1288;22457;-61
2023/01/22 04:32:55;;;;;;;27.80;11.50;;;;;;;11.37;71.32;101573.31;108018;1288;22000;-61
2023/01/22 04:35:20;;;;;;;24.80;11.50;;;;;;;11.36;71.27;101573.48;107982;1288;21986;-70
2023/01/22 04:37:46;;;;;;;25.40;11.90;;;;;;;11.37;71.03;101574.71;108020;1286;21990;-71
2023/01/22 04:40:12;;;;;;;31.00;12.10;;;;;;;11.38;71.11;101572.80;108016;1287;22003;-60
2023/01/22 04:42:38;;;;;;;23.70;11.90;;;;;;;11.41;70.79;101575.79;108059;1288;22459;-60
2023/01/22 04:45:05;;;;;;;22.70;12.50;;;;;;;11.39;70.33;101577.89;108063;1288;21989;-62
2023/01/22 04:47:31;;;;;;;27.50;12.70;;;;;;;11.35;70.22;101581.03;108029;1288;21989;-61
2023/01/22 04:49:56;;;;;;;26.90;11.80;;;;;;;11.32;69.97;101583.84;108144;1288;21989;-62
2023/01/22 04:52:22;;;;;;;24.90;12.30;;;;;;;11.28;69.78;101586.98;108057;1288;21988;-71
2023/01/22 04:54:50;;;;;;;26.10;10.90;;;;;;;11.24;69.74;101590.67;108076;1288;22068;-71
2023/01/22 04:57:16;;;;;;;25.30;11.10;;;;;;;11.22;69.52;101592.92;108108;1288;21989;-61
2023/01/22 04:59:42;;;;;;;19.30;10.50;;;;;;;11.17;69.34;101592.91;108021;1288;22565;-70
2023/01/22 05:02:08;;;;;;;24.60;11.30;;;;;;;11.12;69.53;101592.89;108015;1288;21990;-62
2023/01/22 05:04:34;;;;;;;30.70;12.00;;;;;;;11.11;69.70;101597.97;108136;1288;21987;-71
2023/01/22 05:07:00;;;;;;;23.70;12.10;;;;;;;11.07;69.45;101599.35;108005;1288;21980;-70
2023/01/22 05:09:25;;;;;;;25.20;10.70;;;;;;;11.03;69.06;101598.46;108065;1288;22348;-60
2023/01/22 05:11:51;;;;;;;22.20;11.00;;;;;;;11.05;68.82;101601.63;107914;1286;21989;-61
2023/01/22 05:14:17;;;;;;;29.60;11.70;;;;;;;11.03;68.69;101601.28;108028;1274;21992;-70
2023/01/22 05:16:42;;;;;;;24.20;11.10;;;;;;;11.03;68.61;101604.61;108070;1288;21990;-60
2023/01/22 05:19:08;;;;;;;20.60;10.50;;;;;;;11.00;68.43;101607.58;108021;1285;21985;-60
2023/01/22 05:21:34;;;;;;;25.70;12.90;;;;;;;10.98;68.38;101610.73;108079;1288;21999;-70
2023/01/22 05:24:00;;;;;;;25.70;11.60;;;;;;;10.97;68.30;101614.23;107806;1288;21990;-70
2023/01/22 05:26:26;;;;;;;25.70;11.40;;;;;;;10.94;68.00;101619.48;108074;1288;21989;-60
2023/01/22 05:28:51;;;;;;;24.40;10.90;;;;;;;10.93;68.06;101629.14;108029;1287;21983;-70
2023/01/22 05:31:17;;;;;;;29.90;13.50;;;;;;;10.92;68.24;101631.23;108046;1288;21986;-68
2023/01/22 05:33:43;;;;;;;28.70;11.00;;;;;;;10.94;68.46;101633.54;108038;1288;22163;-60
2023/01/22 05:36:11;;;;;;;32.10;11.30;;;;;;;10.99;68.48;101636.56;108070;1288;22067;-60
2023/01/22 05:38:37;;;;;;;29.50;12.10;;;;;;;11.00;68.23;101640.59;108076;1285;21978;-69
2023/01/22 05:41:03;;;;;;;40.30;13.70;;;;;;;11.01;68.35;101646.05;108026;1288;21990;-67
2023/01/22 05:43:30;;;;;;;31.20;14.20;;;;;;;10.99;68.56;101649.02;108045;1288;22002;-69
2023/01/22 05:46:02;;;;;;;29.50;11.70;;;;;;;10.95;68.33;101653.57;108071;1288;22022;-69
2023/01/22 05:48:30;;;;;;;25.00;12.20;;;;;;;10.93;68.17;101657.60;108013;1288;22004;-69
2023/01/22 05:50:55;;;;;;;28.40;11.90;;;;;;;10.90;67.88;101655.27;107971;1288;22046;-69
2023/01/22 05:53:21;;;;;;;22.10;11.00;;;;;;;10.85;67.76;101661.92;108065;1288;21994;-68
2023/01/22 05:55:47;;;;;;;30.20;11.90;;;;;;;10.85;68.05;101661.74;108064;1288;21993;-69
2023/01/22 05:58:13;;;;;;;22.00;10.80;;;;;;;10.89;68.85;101662.99;108029;1286;21989;-68
2023/01/22 06:00:38;;;;;;;27.50;11.10;;;;;;;10.98;69.48;101663.59;108035;1288;22419;-61
2023/01/22 06:03:04;;;;;;;17.00;9.20;;;;;;;11.04;68.96;101670.83;108056;1288;21968;-60
2023/01/22 06:05:30;;;;;;;20.80;9.70;;;;;;;11.04;68.42;101672.94;108043;1286;21994;-60
2023/01/22 06:07:56;;;;;;;19.80;10.50;;;;;;;11.04;68.24;101676.27;108047;1288;23293;-60
2023/01/22 06:10:23;;;;;;;20.60;10.10;;;;;;;11.04;68.27;101676.63;108069;1287;22084;-62
2023/01/22 06:12:50;;;;;;;17.80;9.80;;;;;;;11.03;68.22;101678.55;107868;1288;23736;-70
2023/01/22 06:15:16;;;;;;;20.50;11.30;;;;;;;11.00;68.11;101678.20;108093;1288;21988;-68
2023/01/22 06:17:45;;;;;;;24.40;11.80;;;;;;;10.97;68.10;101680.10;108019;1287;22027;-70
2023/01/22 06:20:11;;;;;;;21.50;10.60;;;;;;;10.96;67.86;101680.80;108053;1288;23736;-69
2023/01/22 06:22:37;;;;;;;22.00;10.10;;;;;;;10.93;67.40;101683.05;108056;1288;21986;-70
2023/01/22 06:25:03;;;;;;;19.30;9.40;;;;;;;10.86;67.46;101682.65;108005;1287;21999;-70
2023/01/22 06:27:29;;;;;;;21.20;10.90;;;;;;;10.82;67.56;101682.09;108042;1288;22165;-70
2023/01/22 06:29:55;;;;;;;18.80;9.50;;;;;;;10.81;67.83;101684.02;107894;1288;23644;-62
2023/01/22 06:32:21;;;;;;;17.50;9.60;;;;;;;10.83;67.50;101688.42;108012;1288;23075;-70
2023/01/22 06:34:47;;;;;;;20.10;9.80;;;;;;;10.86;67.30;101693.71;108007;1280;22000;-70
2023/01/22 06:37:12;;;;;;;15.70;9.30;;;;;;;10.89;67.32;101695.84;108036;1288;21999;-70
2023/01/22 06:39:38;;;;;;;18.00;11.00;;;;;;;10.88;66.87;101697.05;107911;1286;21984;-70
2023/01/22 06:42:04;;;;;;;19.00;10.00;;;;;;;10.84;66.65;101698.44;108077;1281;21995;-69
2023/01/22 06:44:30;;;;;;;20.20;9.70;;;;;;;10.78;67.03;101700.85;108067;1288;21995;-61
2023/01/22 06:46:56;;;;;;;16.70;9.30;;;;;;;10.73;67.05;101705.20;108029;1280;21977;-69
2023/01/22 06:49:21;;;;;;;23.80;10.20;;;;;;;10.69;67.22;101708.14;108076;1285;21989;-61
2023/01/22 06:51:47;;;;;;;18.70;9.50;;;;;;;10.68;67.39;101712.52;108028;1288;21991;-70
2023/01/22 06:54:13;;;;;;;17.00;9.90;;;;;;;10.68;67.56;101714.28;108026;1285;21988;-61
2023/01/22 06:56:39;;;;;;;17.10;9.50;;;;;;;10.69;67.48;101717.98;108048;1288;22013;-70
2023/01/22 06:59:05;;;;;;;17.10;10.00;;;;;;;10.69;67.53;101720.27;108101;1286;22083;-61
2023/01/22 07:01:32;;;;;;;19.00;9.50;;;;;;;10.74;67.76;101721.53;108018;1288;21988;-61
2023/01/22 07:03:57;;;;;;;18.40;9.60;;;;;;;10.79;67.63;101722.81;107932;1288;21984;-63
2023/01/22 07:06:23;;;;;;;15.30;9.40;;;;;;;10.82;67.62;101723.35;108051;1288;21988;-60
2023/01/22 07:08:49;;;;;;;20.10;10.50;;;;;;;10.86;67.96;101727.60;108074;1276;22025;-68
2023/01/22 10:13:27;;;;;;;14.30;9.70;;;;;;;6.47;100.00;101852.95;107532;1292;550659;-68
2023/01/22 10:15:53;;;;;;;13.60;9.80;;;;;;;9.66;94.85;101838.81;107752;1294;23734;-68
2023/01/22 10:18:43;;;;;;;13.60;8.90;;;;;;;10.16;89.17;101833.02;107862;1293;21999;-62
2023/01/22 10:21:21;;;;;;;12.50;8.70;;;;;;;10.41;86.50;101834.23;107876;1289;21992;-62
2023/01/22 10:23:47;;;;;;;11.10;7.30;;;;;;;10.60;85.04;101835.14;107798;1293;22010;-63
2023/01/22 10:26:23;;;;;;;13.40;7.40;;;;;;;10.65;84.45;101832.20;107565;1291;278817;-68
2023/01/22 10:28:57;;;;;;;8.70;6.10;;;;;;;10.74;83.56;101833.54;107736;1291;22510;-63
2023/01/22 10:31:28;;;;;;;10.00;6.50;;;;;;;10.94;82.53;101829.52;107703;1291;21987;-69
2023/01/22 10:33:57;;;;;;;10.60;7.00;;;;;;;11.08;81.32;101822.80;107682;1291;21988;-69
2023/01/22 10:36:23;;;;;;;9.40;6.80;;;;;;;11.15;80.54;101817.08;107726;1291;22049;-63
2023/01/22 10:38:49;;;;;;;9.60;6.20;;;;;;;11.22;80.20;101812.02;108065;1290;21992;-69
2023/01/22 10:41:19;;;;;;;8.20;6.00;;;;;;;11.29;79.42;101813.14;107929;1290;21998;-69
2023/01/22 10:43:47;;;;;;;8.90;5.80;;;;;;;11.33;79.07;101813.86;107199;1290;1002947;-68
2023/01/22 10:46:17;;;;;;;9.70;6.30;;;;;;;11.34;78.71;101814.58;107938;1290;21997;-69
2023/01/22 10:48:42;;;;;;;8.70;5.30;;;;;;;11.37;78.27;101811.80;107971;1290;21993;-69
2023/01/22 10:51:18;;;;;;;7.90;5.60;;;;;;;11.37;77.58;101814.43;107936;1290;21987;-69
2023/01/22 10:53:45;;;;;;;9.40;5.70;;;;;;;11.35;77.13;101814.77;108001;1290;22975;-69
2023/01/22 10:56:11;;;;;;;8.90;5.40;;;;;;;11.35;76.91;101816.34;107997;1290;22177;-69
2023/01/22 10:58:37;;;;;;;8.90;5.90;;;;;;;11.34;76.79;101816.15;107754;1290;21988;-69
2023/01/22 11:01:18;;;;;;;8.10;5.50;;;;;;;11.31;76.41;101818.41;107834;1290;22001;-69
2023/01/22 11:03:44;;;;;;;8.80;5.70;;;;;;;11.34;76.35;101818.62;107621;1290;21993;-69
2023/01/22 11:06:12;;;;;;;10.50;5.30;;;;;;;11.35;75.79;101812.13;107757;1290;22164;-67
2023/01/22 11:09:04;;;;;;;7.60;5.20;;;;;;;11.36;75.43;101811.95;107834;1289;21990;-69
2023/01/22 11:11:34;;;;;;;8.20;5.40;;;;;;;11.37;75.23;101808.10;107924;1290;23094;-69
2023/01/22 11:14:03;;;;;;;7.90;5.30;;;;;;;11.37;75.08;101803.35;107723;1290;21987;-69
2023/01/22 11:16:32;;;;;;;7.80;5.10;;;;;;;11.35;75.17;101801.92;107794;1290;21992;-69
2023/01/22 11:18:59;;;;;;;8.70;4.90;;;;;;;11.39;75.31;101806.02;107853;1290;21997;-69
2023/01/22 11:21:26;;;;;;;7.80;5.50;;;;;;;11.48;75.00;101805.00;107767;1286;21993;-69
2023/01/22 11:24:01;;;;;;;7.50;5.60;;;;;;;11.46;74.73;101804.82;107646;1289;21999;-69
2023/01/22 11:26:33;;;;;;;8.30;5.40;;;;;;;11.40;74.86;101800.91;107879;1290;22519;-69
2023/01/22 11:29:51;;;;;;;9.70;5.50;;;;;;;11.40;74.68;101801.97;107980;1290;23233;-69
2023/01/22 11:32:29;;;;;;;10.80;6.10;;;;;;;11.50;73.81;101800.80;107643;1291;21990;-69
2023/01/22 11:35:26;;;;;;;10.20;5.50;;;;;;;11.52;73.28;101798.70;107845;1290;21988;-64
2023/01/22 11:38:01;;;;;;;8.00;5.50;;;;;;;11.51;72.98;101801.68;107765;1286;22003;-69
2023/01/22 11:40:30;;;;;;;9.00;5.50;;;;;;;11.50;72.93;101801.67;107797;1285;21989;-64
2023/01/22 11:43:02;;;;;;;7.40;5.20;;;;;;;11.48;72.42;101800.45;107796;1286;21997;-69
2023/01/22 11:45:51;;;;;;;8.30;5.60;;;;;;;11.45;72.23;101803.41;107747;1290;21992;-68
2023/01/22 11:48:49;;;;;;;6.90;5.20;;;;;;;11.43;72.09;101804.80;107850;1290;21988;-68
2023/01/22 11:51:36;;;;;;;8.20;5.40;;;;;;;11.41;71.85;101806.19;107899;1289;22030;-67
2023/01/22 11:54:05;;;;;;;10.60;5.90;;;;;;;11.36;72.34;101808.42;107721;1290;21985;-63
2023/01/22 11:56:58;;;;;;;8.30;5.30;;;;;;;11.31;72.62;101809.29;107783;1286;21996;-62
2023/01/22 11:59:27;;;;;;;9.10;6.30;;;;;;;11.31;72.73;101811.04;107746;1289;23060;-68
2023/01/22 12:02:19;;;;;;;7.60;5.90;;;;;;;11.30;72.48;101815.24;107806;1290;21995;-68
2023/01/22 12:05:08;;;;;;;9.10;6.30;;;;;;;11.29;72.29;101815.23;107800;1290;22000;-68
2023/01/22 12:08:23;;;;;;;7.60;5.50;;;;;;;11.27;72.16;101818.55;107723;1290;21990;-69
2023/01/22 12:11:20;;;;;;;9.00;6.30;;;;;;;11.25;71.93;101824.71;107210;1298;22470;-63
2023/01/22 12:14:10;;;;;;;8.30;5.90;;;;;;;11.22;72.07;101823.27;107219;1298;21998;-69
2023/01/22 12:16:52;;;;;;;9.60;6.70;;;;;;;11.22;72.22;101828.02;107769;1290;22177;-68
2023/01/22 12:19:23;;;;;;;10.20;6.90;;;;;;;11.26;72.20;101828.92;107830;1290;22001;-64
2023/01/22 12:22:19;;;;;;;12.70;8.50;;;;;;;11.27;72.05;101832.27;107767;1289;21999;-64
2023/01/22 12:25:00;;;;;;;14.90;10.00;;;;;;;11.27;71.81;101835.60;107801;1290;21995;-63
2023/01/22 12:27:43;;;;;;;14.60;9.70;;;;;;;11.27;71.96;101840.88;107822;1290;21989;-69
2023/01/22 12:30:25;;;;;;;16.70;10.70;;;;;;;11.27;71.63;101841.05;107730;1290;21969;-68
2023/01/22 12:32:55;;;;;;;17.00;10.40;;;;;;;11.24;71.37;101843.49;107650;1290;21995;-63
2023/01/22 12:35:21;;;;;;;19.40;12.20;;;;;;;11.21;71.27;101846.28;107966;1289;21990;-69
2023/01/22 12:38:04;;;;;;;21.30;13.90;;;;;;;11.18;71.14;101848.02;107869;1283;21980;-64
2023/01/22 12:40:53;;;;;;;24.00;15.60;;;;;;;11.16;71.33;101852.56;107768;1290;21990;-64
2023/01/22 12:43:20;;;;;;;24.30;16.70;;;;;;;11.14;71.04;101855.52;107740;1290;21995;-69
2023/01/22 12:46:03;;;;;;;26.00;16.00;;;;;;;11.12;71.02;101855.16;107834;1286;21990;-64
2023/01/22 12:48:34;;;;;;;25.20;15.00;;;;;;;11.12;71.19;101855.69;107757;1278;22006;-64
2023/01/22 12:51:00;;;;;;;22.70;14.60;;;;;;;11.10;70.83;101854.61;107682;1290;23127;-69
2023/01/22 12:53:29;;;;;;;24.90;14.00;;;;;;;11.06;70.64;101853.52;107720;1290;21990;-66
2023/01/22 12:56:03;;;;;;;23.10;15.00;;;;;;;11.04;70.59;101856.48;107872;1290;21990;-69
2023/01/22 12:58:32;;;;;;;28.50;17.30;;;;;;;11.00;70.87;101855.94;107942;1290;23634;-67
2023/01/22 19:13:35;;;;;;;24.60;11.50;;;;;;;4.84;100.00;102082.44;107802;1283;557775;-61
2023/01/22 19:16:05;;;;;;;25.80;13.50;;;;;;;7.23;99.68;102063.23;107344;1285;1002586;-60
2023/01/22 19:18:36;;;;;;;29.60;13.60;;;;;;;7.74;95.33;102058.35;108115;1286;22033;-60
2023/01/22 19:21:06;;;;;;;29.50;13.90;;;;;;;7.96;92.47;102056.14;108075;1286;21993;-68
2023/01/22 19:23:33;;;;;;;;;;;;;;;8.19;90.91;102057.57;106639;1283;1002558;-68
2023/01/22 19:26:32;;;;;;;27.70;13.50;;;;;;;8.38;89.50;102056.29;107830;1284;332845;-60
2023/01/22 19:32:26;;;;;;;30.00;12.80;;;;;;;8.68;86.36;102060.33;108074;1285;22149;-61
2023/01/22 19:34:55;;;;;;;22.40;11.10;;;;;;;8.81;85.84;102062.00;108066;1286;21995;-61
2023/01/22 19:37:23;;;;;;;24.90;10.90;;;;;;;8.91;85.18;102061.88;108065;1286;23405;-68
2023/01/22 19:39:58;;;;;;;21.60;11.70;;;;;;;8.99;84.16;102062.23;108102;1286;22354;-61
2023/01/22 19:42:24;;;;;;;22.00;12.00;;;;;;;9.04;83.44;102065.30;108101;1286;21990;-69
2023/01/22 19:45:05;;;;;;;21.20;11.40;;;;;;;9.05;82.60;102064.45;108083;1286;21993;-69
2023/01/22 19:47:33;;;;;;;23.70;11.30;;;;;;;9.09;82.30;102067.33;108104;1286;21999;-68
2023/01/22 19:49:59;;;;;;;23.80;12.00;;;;;;;9.14;81.86;102068.30;108051;1286;22039;-69
2023/01/22 19:52:26;;;;;;;26.10;12.90;;;;;;;9.17;81.15;102066.95;107812;1286;23985;-68
2023/01/22 19:54:54;;;;;;;23.40;11.50;;;;;;;9.16;80.74;102070.09;108040;1286;21995;-68
2023/01/22 19:57:25;;;;;;;25.10;11.50;;;;;;;9.14;80.02;102069.88;108095;1282;22013;-69
2023/01/22 19:59:59;;;;;;;29.10;14.10;;;;;;;9.09;79.31;102072.76;107844;1286;23661;-61
2023/01/22 20:02:26;;;;;;;29.30;14.70;;;;;;;9.04;79.05;102072.30;108136;1284;21988;-69
2023/01/22 20:05:05;;;;;;;27.40;13.80;;;;;;;9.03;79.19;102067.56;108083;1284;23743;-69
2023/01/22 20:07:34;;;;;;;30.40;13.50;;;;;;;9.06;79.36;102063.24;108117;1284;21986;-68
2023/01/22 20:10:12;;;;;;;31.10;14.50;;;;;;;9.11;79.34;102058.09;108139;1284;21985;-69
2023/01/22 20:12:42;;;;;;;30.60;14.60;;;;;;;9.13;79.06;102055.85;108136;1283;22539;-62
2023/01/22 20:15:10;;;;;;;33.20;16.50;;;;;;;9.14;78.82;102056.22;108236;1284;21961;-69
2023/01/22 20:17:36;;;;;;;30.70;14.90;;;;;;;9.16;78.36;102057.31;108240;1284;22409;-69
2023/01/22 20:20:04;;;;;;;33.20;14.50;;;;;;;9.14;77.92;102056.75;107088;1274;1002861;-68
2023/01/22 20:22:31;;;;;;;27.90;12.20;;;;;;;9.13;77.44;102060.73;108112;1288;21989;-61
2023/01/22 20:25:02;;;;;;;31.20;15.20;;;;;;;9.13;77.29;102062.84;108130;1287;22014;-69
2023/01/22 20:27:31;;;;;;;33.40;13.90;;;;;;;9.13;77.28;102064.78;108104;1288;23823;-61
2023/01/22 20:30:10;;;;;;;28.60;13.60;;;;;;;9.13;77.09;102068.80;108091;1281;22007;-61
2023/01/22 20:32:38;;;;;;;30.20;13.10;;;;;;;9.13;77.02;102074.41;108095;1287;22064;-69
2023/01/22 20:35:05;;;;;;;34.10;14.80;;;;;;;9.04;77.45;102075.80;108158;1280;21965;-68
2023/01/22 20:37:30;;;;;;;34.30;15.60;;;;;;;8.98;77.86;102078.64;108123;1285;21999;-69
2023/01/22 20:39:57;;;;;;;29.40;14.10;;;;;;;9.06;77.20;102076.02;108117;1286;22036;-68
2023/01/22 20:42:23;;;;;;;29.70;13.20;;;;;;;9.10;76.26;102075.21;108197;1287;21998;-61
2023/01/22 20:44:49;;;;;;;27.30;12.00;;;;;;;9.04;75.73;102077.04;108143;1287;21989;-62
2023/01/22 20:47:14;;;;;;;30.00;13.30;;;;;;;8.97;75.40;102075.84;108130;1287;22001;-61
2023/01/22 20:49:40;;;;;;;34.10;14.70;;;;;;;8.96;75.98;102071.44;108124;1287;21995;-68
2023/01/22 20:52:06;;;;;;;30.70;14.10;;;;;;;8.97;76.21;102071.09;108107;1284;21990;-69
2023/01/22 20:54:32;;;;;;;27.10;13.40;;;;;;;8.99;76.19;102069.91;108137;1285;21990;-61
2023/01/22 20:56:58;;;;;;;30.80;13.90;;;;;;;9.00;75.97;102071.52;108138;1285;21994;-61
2023/01/22 20:59:26;;;;;;;30.30;15.40;;;;;;;9.01;76.16;102078.36;108145;1283;21986;-61
2023/01/22 21:01:53;;;;;;;27.00;13.60;;;;;;;9.03;76.13;102078.95;108111;1273;22452;-61
2023/01/22 21:04:19;;;;;;;27.80;13.80;;;;;;;9.06;76.09;102078.12;108277;1285;21994;-61
2023/01/22 21:06:45;;;;;;;34.60;15.50;;;;;;;9.09;75.83;102080.45;108300;1285;21990;-61
2023/01/22 21:09:11;;;;;;;30.60;15.80;;;;;;;9.12;75.73;102081.74;108237;1275;21989;-62
2023/01/22 21:11:40;;;;;;;33.10;16.50;;;;;;;9.13;75.41;102078.44;108110;1285;21994;-60
2023/01/22 21:14:06;;;;;;;28.30;14.80;;;;;;;9.10;75.00;102083.45;108155;1285;22007;-69
2023/01/22 21:16:37;;;;;;;29.80;14.70;;;;;;;8.96;75.24;102082.98;108418;1285;22030;-62
2023/01/22 21:19:07;;;;;;;31.20;15.80;;;;;;;8.88;75.66;102086.47;108145;1285;21986;-60
2023/01/22 21:21:34;;;;;;;33.60;15.90;;;;;;;8.86;75.65;102088.20;108154;1285;23057;-62
2023/01/22 21:24:00;;;;;;;33.40;15.60;;;;;;;8.84;75.81;102087.63;108126;1285;22074;-69
2023/01/22 21:26:27;;;;;;;33.20;15.20;;;;;;;8.86;76.08;102087.83;108321;1285;21995;-61
2023/01/22 21:28:57;;;;;;;31.80;15.20;;;;;;;8.88;76.30;102083.70;108180;1280;22005;-61
2023/01/22 21:31:26;;;;;;;33.00;15.50;;;;;;;8.90;76.02;102082.34;108073;1285;22046;-61
2023/01/22 21:34:01;;;;;;;31.10;16.10;;;;;;;8.90;75.95;102081.29;108153;1285;21957;-70
2023/01/22 21:36:32;;;;;;;33.40;17.50;;;;;;;8.88;75.34;102082.64;108155;1285;21990;-69
2023/01/22 21:38:59;;;;;;;30.90;16.50;;;;;;;8.85;75.03;102084.31;108127;1285;22572;-68
2023/01/22 21:41:24;;;;;;;31.00;15.80;;;;;;;8.81;75.16;102084.23;108175;1285;22029;-68
2023/01/22 21:46:37;;;;;;;33.90;16.60;;;;;;;8.79;75.08;102076.48;108081;1284;22032;-61
2023/01/22 21:49:15;;;;;;;33.10;15.50;;;;;;;8.72;74.44;102076.50;108151;1285;21989;-68
2023/01/22 21:51:44;;;;;;;28.60;15.70;;;;;;;8.67;74.72;102084.95;105906;1285;1002663;-68
2023/01/22 21:54:11;;;;;;;31.20;16.50;;;;;;;8.67;74.98;102091.08;108165;1285;22937;-61